Time;durP1;ratioP1;P1;durP2;ratioP2;P2;SDS_P1;SDS_P2;PMS_P1;PMS_P2;Temp;Humidity;BMP_temperature;BMP_pressure;BME280_temperature;BME280_humidity;BME280_pressure;Samples;Min_cycle;Max_cycle;Signal;HPM_P1;HPM_P2
2020/12/07 00:01:04;;;;;;;47.55;26.55;;;;;;;4.45;77.96;97019.06;5095006;28;20044;-67
2020/12/07 00:03:31;;;;;;;47.97;26.60;;;;;;;4.42;77.99;97016.84;5093582;28;20047;-67
2020/12/07 00:06:00;;;;;;;43.95;25.80;;;;;;;4.39;77.88;97009.38;5094872;28;20067;-66
2020/12/07 00:08:27;;;;;;;49.70;28.25;;;;;;;4.34;78.13;97003.94;5094508;28;20078;-67
2020/12/07 00:10:53;;;;;;;46.47;27.23;;;;;;;4.26;78.21;97014.59;5094958;28;20040;-67
2020/12/07 00:13:20;;;;;;;47.70;25.92;;;;;;;4.35;78.30;97013.41;5094942;28;20043;-67
2020/12/07 00:15:47;;;;;;;53.70;28.52;;;;;;;4.38;78.21;97015.63;5094684;28;20410;-68
2020/12/07 00:18:14;;;;;;;48.67;28.52;;;;;;;4.46;78.28;97022.50;5094522;28;20036;-67
2020/12/07 00:20:44;;;;;;;48.20;27.38;;;;;;;4.56;78.00;97012.44;5093581;28;20497;-66
2020/12/07 00:23:12;;;;;;;49.47;27.95;;;;;;;4.56;77.93;97011.63;5094905;28;20032;-67
2020/12/07 00:25:39;;;;;;;42.53;26.25;;;;;;;4.50;77.98;97028.16;5094818;28;20104;-67
2020/12/07 00:28:06;;;;;;;46.33;26.70;;;;;;;4.43;78.00;97036.75;5094966;28;20063;-68
2020/12/07 00:30:32;;;;;;;43.58;25.58;;;;;;;4.50;78.02;97039.41;5093776;28;20044;-67
2020/12/07 00:32:59;;;;;;;43.53;25.60;;;;;;;4.55;77.90;97039.63;5093864;28;20050;-67
2020/12/07 00:35:26;;;;;;;43.67;25.60;;;;;;;4.60;77.81;97037.22;5094263;28;20052;-67
2020/12/07 00:37:53;;;;;;;42.00;25.25;;;;;;;4.55;77.37;97036.19;5094735;28;20078;-67
2020/12/07 00:40:20;;;;;;;44.80;25.10;;;;;;;4.41;77.45;97024.91;5094441;28;20044;-67
2020/12/07 00:42:47;;;;;;;42.25;25.05;;;;;;;4.34;77.68;97016.22;5093476;28;20044;-66
2020/12/07 00:45:14;;;;;;;41.08;23.58;;;;;;;4.31;77.84;97004.31;5094527;28;20044;-67
2020/12/07 00:47:41;;;;;;;42.20;23.75;;;;;;;4.36;77.96;97001.13;5093885;28;20119;-67
2020/12/07 00:50:08;;;;;;;40.45;23.73;;;;;;;4.37;77.81;97006.16;5093053;28;20062;-67
2020/12/07 00:52:35;;;;;;;38.85;22.92;;;;;;;4.46;77.78;97002.38;5094264;28;20040;-67
2020/12/07 00:55:03;;;;;;;39.78;23.67;;;;;;;4.54;77.70;97005.81;5093180;28;20044;-67
2020/12/07 00:57:31;;;;;;;37.58;22.70;;;;;;;4.63;77.37;97013.28;5092822;28;20577;-67
2020/12/07 00:59:58;;;;;;;38.35;23.10;;;;;;;4.62;77.19;97018.72;5094587;28;20040;-67
2020/12/07 01:02:25;;;;;;;40.17;22.38;;;;;;;4.62;77.16;97024.75;5093409;28;20071;-67
2020/12/07 01:04:52;;;;;;;32.45;21.00;;;;;;;4.68;77.39;97015.28;5095189;28;20512;-68
2020/12/07 01:07:19;;;;;;;35.00;21.63;;;;;;;4.72;77.19;97019.13;5094300;28;20044;-67
2020/12/07 01:09:49;;;;;;;37.05;21.33;;;;;;;4.72;76.99;97024.34;5094788;28;20038;-68
2020/12/07 01:12:17;;;;;;;34.83;21.48;;;;;;;4.76;76.87;97022.94;5092917;28;20205;-68
2020/12/07 01:14:51;;;;;;;33.72;19.92;;;;;;;4.78;77.11;97025.38;5092979;28;20047;-67
2020/12/07 01:17:18;;;;;;;33.08;19.77;;;;;;;4.79;77.15;97021.75;5092491;28;20040;-68
2020/12/07 01:19:49;;;;;;;34.13;20.73;;;;;;;4.76;77.04;97016.91;5092538;28;20131;-67
2020/12/07 01:22:23;;;;;;;32.40;19.33;;;;;;;4.69;76.89;97011.66;5092789;28;20505;-68
2020/12/07 01:24:50;;;;;;;30.85;19.42;;;;;;;4.71;76.79;97012.28;5092227;28;20036;-67
2020/12/07 01:27:17;;;;;;;35.20;20.95;;;;;;;4.72;76.78;97011.28;5091946;28;20410;-67
2020/12/07 01:29:44;;;;;;;31.77;19.42;;;;;;;4.77;76.88;97019.31;5092318;28;20062;-66
2020/12/07 01:32:12;;;;;;;34.60;20.38;;;;;;;4.75;76.70;97018.72;5093548;28;20040;-67
2020/12/07 01:34:39;;;;;;;34.92;19.10;;;;;;;4.72;76.80;97011.28;5092225;28;20051;-66
2020/12/07 01:37:08;;;;;;;32.28;19.50;;;;;;;4.74;76.66;97008.47;5091796;28;20114;-67
2020/12/07 01:39:41;;;;;;;35.15;19.90;;;;;;;4.69;76.75;97002.03;5092012;28;20528;-66
2020/12/07 01:42:08;;;;;;;33.17;21.05;;;;;;;4.68;76.85;96997.78;5091573;28;20074;-66
2020/12/07 01:44:35;;;;;;;35.83;20.60;;;;;;;4.67;76.76;96995.34;5091625;28;20498;-67
2020/12/07 01:47:21;;;;;;;34.53;20.73;;;;;;;4.69;76.78;97001.19;5091476;28;20105;-66
2020/12/07 01:49:53;;;;;;;36.72;21.88;;;;;;;4.57;76.80;96989.69;5091469;28;20044;-67
2020/12/07 01:52:23;;;;;;;34.88;20.05;;;;;;;4.59;76.97;96995.56;5091633;28;20040;-65
2020/12/07 01:54:50;;;;;;;38.75;21.95;;;;;;;4.68;77.10;96997.78;5091986;28;20143;-66
2020/12/07 01:57:18;;;;;;;37.28;20.55;;;;;;;4.68;76.89;97004.81;5091619;28;20071;-66
2020/12/07 01:59:49;;;;;;;36.10;22.30;;;;;;;4.62;77.03;97003.81;5092277;28;20089;-65
2020/12/07 02:02:17;;;;;;;32.30;20.35;;;;;;;4.63;77.16;97010.66;5091934;28;20055;-66
2020/12/07 02:04:44;;;;;;;32.65;21.13;;;;;;;4.55;77.07;97010.03;5092171;28;20036;-66
2020/12/07 02:07:17;;;;;;;34.85;20.60;;;;;;;4.51;77.06;97001.78;5091436;28;20134;-66
2020/12/07 02:09:45;;;;;;;33.03;20.10;;;;;;;4.47;77.01;97011.03;5091758;28;20567;-66
2020/12/07 02:12:12;;;;;;;34.40;20.73;;;;;;;4.51;76.71;97008.81;5092143;28;20044;-66
2020/12/07 02:14:39;;;;;;;33.38;19.92;;;;;;;4.54;77.00;97016.28;5093823;28;20036;-67
2020/12/07 02:17:06;;;;;;;36.40;21.73;;;;;;;4.50;76.96;97020.28;5093827;28;20550;-67
2020/12/07 02:19:34;;;;;;;39.08;20.65;;;;;;;4.48;76.82;97018.66;5094674;28;20036;-67
2020/12/07 02:22:03;;;;;;;32.25;20.17;;;;;;;4.45;77.08;97019.06;5091919;28;20040;-66
2020/12/07 02:25:05;;;;;;;32.53;19.48;;;;;;;4.53;76.95;97025.94;5097034;28;20102;-66
2020/12/07 02:27:33;;;;;;;32.72;19.27;;;;;;;4.63;76.85;97026.34;5091587;28;20129;-66
2020/12/07 02:30:01;;;;;;;32.90;19.88;;;;;;;4.67;76.82;97024.97;5091431;28;20044;-66
2020/12/07 02:32:29;;;;;;;34.50;19.90;;;;;;;4.71;76.84;97022.75;5091791;28;20052;-66
2020/12/07 02:35:16;;;;;;;31.58;19.42;;;;;;;4.74;76.52;97022.38;5092223;28;20064;-67
2020/12/07 02:37:49;;;;;;;33.92;20.17;;;;;;;4.73;76.39;97028.59;5091491;28;20505;-66
2020/12/07 02:40:19;;;;;;;30.85;19.58;;;;;;;4.77;76.39;97015.91;5091412;28;20054;-66
2020/12/07 02:42:48;;;;;;;33.97;18.40;;;;;;;4.74;76.37;97013.72;5091612;28;20044;-65
2020/12/07 02:45:20;;;;;;;35.33;21.08;;;;;;;4.72;76.14;97004.22;5091464;28;20044;-66
2020/12/07 02:47:57;;;;;;;34.35;20.75;;;;;;;4.63;76.34;97008.03;5090797;28;20058;-66
2020/12/07 02:50:23;;;;;;;33.33;21.17;;;;;;;4.53;76.67;97007.63;5092157;28;20050;-67
2020/12/07 02:52:51;;;;;;;36.97;21.70;;;;;;;4.55;76.61;97012.66;5090764;28;20040;-66
2020/12/07 02:55:18;;;;;;;36.72;21.40;;;;;;;4.62;76.84;97021.34;5090702;28;20075;-65
2020/12/07 02:57:47;;;;;;;33.90;20.30;;;;;;;4.59;76.81;97025.13;5090600;28;20509;-66
2020/12/07 03:00:21;;;;;;;37.63;21.65;;;;;;;4.63;76.60;97022.94;5090810;28;20048;-67
2020/12/07 03:02:48;;;;;;;41.08;23.45;;;;;;;4.66;76.64;97030.41;5090690;28;20040;-66
2020/12/07 03:05:20;;;;;;;40.78;22.65;;;;;;;4.60;76.78;97029.38;5090760;28;20044;-66
2020/12/07 03:07:48;;;;;;;39.33;22.58;;;;;;;4.60;76.47;97025.94;5090726;28;20048;-66
2020/12/07 03:10:18;;;;;;;41.22;24.45;;;;;;;4.59;76.48;97040.03;5091977;28;20052;-66
2020/12/07 03:12:48;;;;;;;38.95;22.13;;;;;;;4.57;76.50;97044.66;5095328;28;20147;-66
2020/12/07 03:15:19;;;;;;;45.00;24.15;;;;;;;4.59;76.62;97033.00;5094585;28;20051;-66
2020/12/07 03:17:46;;;;;;;38.88;23.27;;;;;;;4.55;76.46;97050.09;5094441;28;20040;-66
2020/12/07 03:20:17;;;;;;;40.83;23.35;;;;;;;4.50;76.63;97049.06;5094422;28;20060;-65
2020/12/07 03:22:44;;;;;;;38.45;23.23;;;;;;;4.44;76.61;97054.06;5094744;28;20044;-66
2020/12/07 03:25:11;;;;;;;39.60;23.92;;;;;;;4.40;76.74;97058.09;5095268;28;20047;-66
2020/12/07 03:27:43;;;;;;;40.10;24.10;;;;;;;4.38;76.71;97054.06;5094437;28;20502;-66
2020/12/07 03:30:10;;;;;;;42.63;24.08;;;;;;;4.31;76.82;97045.38;5095053;28;20506;-66
2020/12/07 03:32:37;;;;;;;44.40;24.35;;;;;;;4.33;76.74;97040.78;5095210;28;20070;-66
2020/12/07 03:35:03;;;;;;;42.45;25.27;;;;;;;4.26;76.95;97045.16;5102983;28;20063;-66
2020/12/07 03:37:30;;;;;;;43.30;25.95;;;;;;;4.22;76.99;97042.94;5109334;28;20059;-66
2020/12/07 03:39:59;;;;;;;38.92;23.17;;;;;;;4.20;76.89;97037.09;5107045;28;20071;-65
2020/12/07 03:42:33;;;;;;;39.25;24.20;;;;;;;4.20;76.98;97031.88;5094555;28;20055;-65
2020/12/07 03:45:05;;;;;;;42.55;24.63;;;;;;;4.26;76.79;97034.69;5094308;28;20078;-67
2020/12/07 03:47:33;;;;;;;40.38;24.52;;;;;;;4.16;76.70;97035.03;5093944;28;20094;-67
2020/12/07 03:50:01;;;;;;;39.72;24.30;;;;;;;4.17;76.78;97032.25;5094065;28;20059;-67
2020/12/07 03:52:27;;;;;;;37.92;22.23;;;;;;;4.11;76.96;97040.88;5094068;28;20052;-66
2020/12/07 03:54:58;;;;;;;34.83;21.77;;;;;;;4.06;76.97;97047.69;5093950;28;20050;-66
2020/12/07 03:57:27;;;;;;;35.65;20.98;;;;;;;4.08;76.89;97043.06;5093810;28;20047;-67
2020/12/07 03:59:54;;;;;;;34.85;20.25;;;;;;;4.12;76.79;97037.28;5093883;28;20052;-66
2020/12/07 04:02:23;;;;;;;35.45;20.73;;;;;;;4.12;76.58;97029.44;5094200;28;20051;-66
2020/12/07 04:04:53;;;;;;;30.15;19.02;;;;;;;4.14;76.55;97029.22;5094301;28;20501;-66
2020/12/07 04:07:22;;;;;;;29.60;19.55;;;;;;;4.21;76.49;97027.44;5093537;28;20068;-66
2020/12/07 04:09:50;;;;;;;31.05;19.00;;;;;;;4.22;76.36;97026.44;5093854;28;20039;-66
2020/12/07 04:12:17;;;;;;;27.52;17.48;;;;;;;4.23;76.05;97023.63;5095112;28;20040;-66
2020/12/07 04:14:43;;;;;;;28.60;18.73;;;;;;;4.24;76.22;97037.50;5094711;28;20417;-67
2020/12/07 04:17:10;;;;;;;29.33;19.10;;;;;;;4.24;76.15;97034.88;5093528;28;20749;-67
2020/12/07 04:19:38;;;;;;;28.70;17.35;;;;;;;4.21;75.96;97041.31;5094790;28;20044;-67
2020/12/07 04:22:04;;;;;;;26.25;17.48;;;;;;;4.26;76.01;97038.13;5093838;28;20051;-66
2020/12/07 04:24:31;;;;;;;27.42;18.02;;;;;;;4.25;75.80;97046.97;5094583;28;20054;-66
2020/12/07 04:26:58;;;;;;;28.38;17.30;;;;;;;4.17;75.89;97040.09;5094385;28;20044;-67
2020/12/07 04:29:25;;;;;;;27.83;18.25;;;;;;;4.18;75.94;97048.75;5094678;28;20044;-66
2020/12/07 04:31:51;;;;;;;29.83;18.50;;;;;;;4.15;75.94;97054.38;5094543;28;20044;-66
2020/12/07 04:34:18;;;;;;;29.02;18.90;;;;;;;4.15;76.13;97063.00;5094251;28;20047;-66
2020/12/07 04:36:45;;;;;;;28.58;17.13;;;;;;;4.13;76.08;97061.63;5094337;28;20047;-66
2020/12/07 04:39:12;;;;;;;26.30;18.17;;;;;;;4.06;75.95;97061.56;5094110;28;20036;-66
2020/12/07 04:41:41;;;;;;;30.17;18.08;;;;;;;4.08;76.07;97072.66;5094140;28;20520;-66
2020/12/07 04:44:08;;;;;;;29.85;18.67;;;;;;;4.11;76.18;97072.25;5094282;28;20044;-67
2020/12/07 04:46:35;;;;;;;29.70;18.45;;;;;;;4.06;76.11;97074.63;5094197;28;20055;-67
2020/12/07 04:49:02;;;;;;;29.77;19.08;;;;;;;4.04;76.18;97078.44;5094036;28;20040;-66
2020/12/07 04:51:31;;;;;;;29.92;18.63;;;;;;;4.06;76.30;97084.28;5092924;28;20052;-66
2020/12/07 04:54:01;;;;;;;31.65;19.00;;;;;;;4.07;76.13;97085.91;5092847;28;20044;-67
2020/12/07 04:56:28;;;;;;;30.55;18.35;;;;;;;4.09;76.12;97083.91;5094470;28;20505;-67
2020/12/07 04:58:56;;;;;;;29.05;18.65;;;;;;;4.00;76.10;97096.34;5093813;28;20043;-67
2020/12/07 05:01:23;;;;;;;31.20;19.27;;;;;;;3.97;76.34;97100.16;5094165;28;20100;-67
2020/12/07 05:03:49;;;;;;;30.70;19.42;;;;;;;3.99;76.27;97094.72;5094228;28;20042;-68
2020/12/07 05:06:19;;;;;;;29.35;18.38;;;;;;;4.01;76.31;97086.69;5094164;28;20043;-67
2020/12/07 05:08:46;;;;;;;31.15;19.48;;;;;;;4.03;76.62;97095.13;5093593;28;20036;-67
2020/12/07 05:11:14;;;;;;;28.10;18.23;;;;;;;4.02;76.46;97090.91;5093755;28;20040;-67
2020/12/07 05:13:45;;;;;;;29.63;18.35;;;;;;;3.98;76.54;97095.72;5094007;28;20050;-68
2020/12/07 05:16:12;;;;;;;29.60;18.65;;;;;;;3.94;76.48;97100.53;5093746;28;20044;-68
2020/12/07 05:18:40;;;;;;;31.02;19.48;;;;;;;3.91;76.52;97097.47;5093424;28;20058;-67
2020/12/07 05:21:07;;;;;;;27.88;17.92;;;;;;;3.94;76.46;97097.91;5092370;28;20052;-67
2020/12/07 05:23:37;;;;;;;30.75;18.35;;;;;;;3.98;76.43;97104.38;5093588;28;20052;-66
2020/12/07 05:26:07;;;;;;;29.10;17.60;;;;;;;3.95;76.41;97112.59;5093677;28;20405;-67
2020/12/07 05:28:40;;;;;;;28.40;18.20;;;;;;;3.93;76.35;97117.22;5093250;28;20051;-67
2020/12/07 05:31:07;;;;;;;29.25;18.05;;;;;;;3.91;76.67;97115.78;5093792;28;20044;-68
2020/12/07 05:33:33;;;;;;;30.90;18.20;;;;;;;3.87;76.78;97117.16;5092115;28;20434;-67
2020/12/07 05:36:00;;;;;;;31.02;17.45;;;;;;;3.87;76.61;97122.38;5093619;28;20044;-67
2020/12/07 05:38:36;;;;;;;29.40;17.80;;;;;;;3.87;76.79;97128.41;5093199;28;20102;-67
2020/12/07 05:41:04;;;;;;;30.98;19.05;;;;;;;3.89;76.68;97131.66;5093301;28;20044;-67
2020/12/07 05:43:32;;;;;;;29.02;18.35;;;;;;;3.89;76.54;97131.66;5093885;28;20452;-67
2020/12/07 05:46:00;;;;;;;27.90;17.75;;;;;;;3.87;76.68;97133.66;5093618;28;20090;-67
2020/12/07 05:48:32;;;;;;;33.33;18.95;;;;;;;3.85;76.70;97133.03;5091574;28;20075;-67
2020/12/07 05:51:01;;;;;;;32.95;18.63;;;;;;;3.83;76.67;97129.78;5093193;28;20076;-67
2020/12/07 05:53:30;;;;;;;32.58;20.08;;;;;;;3.83;76.65;97142.06;5093452;28;20043;-68
2020/12/07 05:56:00;;;;;;;32.05;20.13;;;;;;;3.76;76.66;97136.81;5093235;28;20097;-68
2020/12/07 05:58:29;;;;;;;31.25;19.75;;;;;;;3.77;76.91;97140.22;5091713;28;20409;-68
2020/12/07 06:01:03;;;;;;;37.03;22.77;;;;;;;3.79;77.09;97144.25;5093044;28;20048;-68
2020/12/07 06:03:30;;;;;;;34.80;19.67;;;;;;;3.78;76.98;97153.09;5091698;28;20607;-67
2020/12/07 06:05:57;;;;;;;35.42;20.77;;;;;;;3.81;76.85;97168.41;5092745;28;20044;-67
2020/12/07 06:08:30;;;;;;;36.22;21.58;;;;;;;3.78;76.84;97162.75;5092579;28;20040;-68
2020/12/07 06:10:59;;;;;;;;;;;;;;;3.77;76.96;97166.38;5093400;28;20101;-68
2020/12/07 06:13:28;;;;;;;36.22;20.17;;;;;;;3.79;76.84;97169.56;5091498;28;19926;-67
2020/12/07 06:15:55;;;;;;;38.75;22.45;;;;;;;3.83;76.65;97169.00;5092505;28;20040;-67
2020/12/07 06:18:26;;;;;;;36.15;20.75;;;;;;;3.84;76.91;97178.50;5092347;28;20051;-68
2020/12/07 06:21:03;;;;;;;33.30;20.58;;;;;;;3.75;76.90;97173.56;5092827;28;20434;-68
2020/12/07 06:23:31;;;;;;;34.95;21.65;;;;;;;3.73;76.89;97173.78;5093017;28;20036;-68
2020/12/07 06:26:02;;;;;;;38.40;22.10;;;;;;;3.78;76.91;97187.06;5092638;28;20070;-68
2020/12/07 06:28:34;;;;;;;38.75;20.63;;;;;;;3.85;76.88;97172.25;5092349;28;20077;-68
2020/12/07 06:31:07;;;;;;;33.92;20.95;;;;;;;3.90;76.82;97180.31;5092332;28;20098;-67
2020/12/07 06:33:45;;;;;;;32.35;20.55;;;;;;;3.91;76.62;97181.13;5092611;28;20426;-68
2020/12/07 06:36:24;;;;;;;33.65;19.48;;;;;;;3.95;76.45;97182.38;5092362;28;20040;-67
2020/12/07 06:38:51;;;;;;;31.92;19.45;;;;;;;3.90;76.35;97180.31;5091009;28;20054;-69
2020/12/07 06:41:30;;;;;;;33.55;20.30;;;;;;;3.95;76.50;97184.97;5092050;28;20413;-68
2020/12/07 06:43:58;;;;;;;35.83;21.15;;;;;;;3.98;76.62;97182.81;5092467;28;20492;-67
2020/12/07 06:46:48;;;;;;;31.60;19.77;;;;;;;4.03;76.22;97186.66;5091854;28;20564;-67
2020/12/07 06:49:16;;;;;;;31.35;19.67;;;;;;;3.99;76.09;97196.69;5092122;28;20418;-67
2020/12/07 06:51:47;;;;;;;33.67;19.58;;;;;;;3.94;76.20;97196.44;5092164;28;20098;-68
2020/12/07 06:57:20;;;;;;;30.42;18.65;;;;;;;3.88;76.35;97202.44;5078042;28;20044;-67
2020/12/07 06:59:55;;;;;;;30.00;17.88;;;;;;;3.93;76.39;97200.88;5092321;28;20086;-67
2020/12/07 07:02:24;;;;;;;30.10;18.95;;;;;;;3.91;76.31;97205.47;5092159;28;20139;-67
2020/12/07 07:04:56;;;;;;;30.08;18.48;;;;;;;3.84;76.30;97206.44;5092125;28;20119;-68
2020/12/07 07:07:24;;;;;;;31.02;18.65;;;;;;;3.84;76.36;97214.28;5091899;28;20502;-68
2020/12/07 07:09:52;;;;;;;28.25;17.33;;;;;;;3.88;76.41;97215.53;5090888;28;20051;-68
2020/12/07 07:12:20;;;;;;;30.17;18.27;;;;;;;3.81;76.46;97212.84;5092352;28;20040;-69
2020/12/07 07:14:49;;;;;;;30.00;17.98;;;;;;;3.89;76.60;97220.53;5092340;28;20403;-68
2020/12/07 07:17:16;;;;;;;31.80;20.05;;;;;;;3.89;76.43;97220.53;5092026;28;20036;-67
2020/12/07 07:19:43;;;;;;;30.40;20.05;;;;;;;3.91;76.26;97225.56;5091711;28;20109;-67
2020/12/07 07:22:12;;;;;;;28.88;18.50;;;;;;;3.90;76.35;97237.03;5092000;28;20047;-68
2020/12/07 07:24:44;;;;;;;29.17;19.45;;;;;;;3.89;76.34;97238.03;5091995;28;20040;-68
2020/12/07 07:29:57;;;;;;;28.20;18.17;;;;;;;3.84;76.46;97238.63;5092171;28;20482;-68
2020/12/07 07:32:24;;;;;;;29.08;16.73;;;;;;;3.79;76.42;97235.72;5092156;28;20036;-67
2020/12/07 07:34:52;;;;;;;26.92;17.48;;;;;;;3.85;76.33;97236.81;5092262;28;20394;-67
2020/12/07 07:37:20;;;;;;;27.05;17.23;;;;;;;3.90;76.54;97237.03;5091988;28;20097;-67
2020/12/07 07:39:58;;;;;;;27.42;16.98;;;;;;;3.88;76.34;97234.63;5092690;28;20551;-68
2020/12/07 07:42:26;;;;;;;28.25;17.17;;;;;;;3.90;76.43;97243.06;5091095;28;20537;-67
2020/12/07 07:44:55;;;;;;;26.08;16.73;;;;;;;3.97;76.29;97250.97;5092610;28;20106;-67
2020/12/07 07:47:32;;;;;;;22.73;15.02;;;;;;;3.92;76.33;97253.34;5091966;28;20088;-69
2020/12/07 07:53:26;;;;;;;20.15;13.98;;;;;;;3.90;76.47;97248.31;5090082;28;20059;-66
2020/12/07 08:15:59;;;;;;;24.77;16.30;;;;;;;4.01;76.34;97262.69;5094473;28;20052;-68
2020/12/07 08:18:30;;;;;;;27.95;16.35;;;;;;;4.00;76.41;97270.69;5094534;28;20044;-67
2020/12/07 08:20:59;;;;;;;27.08;16.63;;;;;;;4.11;76.19;97275.44;5094971;28;20044;-66
2020/12/07 08:23:28;;;;;;;23.17;15.45;;;;;;;4.09;76.03;97280.84;5093495;28;20044;-67
2020/12/07 08:25:56;;;;;;;23.27;16.02;;;;;;;4.18;76.16;97281.53;5094699;28;20050;-67
2020/12/07 08:28:31;;;;;;;22.00;14.30;;;;;;;4.12;76.15;97284.88;5094136;28;20422;-66
2020/12/07 08:31:05;;;;;;;24.73;16.23;;;;;;;4.21;76.16;97289.81;5093140;28;20067;-66
2020/12/07 08:33:33;;;;;;;24.87;16.10;;;;;;;4.30;76.38;97285.25;5093278;28;20044;-67
2020/12/07 08:36:01;;;;;;;22.42;15.40;;;;;;;4.34;76.37;97294.34;5094244;28;20040;-66
2020/12/07 08:38:30;;;;;;;22.80;16.42;;;;;;;4.43;75.97;97295.81;5094021;28;20494;-67
2020/12/07 08:41:08;;;;;;;21.77;15.00;;;;;;;4.53;75.55;97305.94;5094178;28;20474;-67
2020/12/07 08:43:38;;;;;;;19.25;13.98;;;;;;;4.44;75.47;97302.66;5094280;28;20498;-66
2020/12/07 08:46:06;;;;;;;17.92;13.32;;;;;;;4.48;75.35;97310.94;5094210;28;20054;-66
2020/12/07 08:48:34;;;;;;;22.30;16.25;;;;;;;4.47;75.37;97304.09;5093834;28;20543;-67
2020/12/07 08:51:01;;;;;;;21.95;13.57;;;;;;;4.53;75.30;97305.13;5093131;28;20131;-67
2020/12/07 08:53:28;;;;;;;19.85;14.85;;;;;;;4.54;75.27;97306.75;5094177;28;20525;-66
2020/12/07 08:55:56;;;;;;;21.38;14.55;;;;;;;4.57;75.23;97304.56;5094327;28;20450;-66
2020/12/07 08:58:23;;;;;;;19.15;13.85;;;;;;;4.66;75.18;97311.28;5092612;28;20043;-67
2020/12/07 09:00:50;;;;;;;19.63;14.60;;;;;;;4.74;74.87;97310.31;5093035;28;20071;-67
2020/12/07 09:03:17;;;;;;;20.42;15.15;;;;;;;4.68;74.41;97314.50;5094209;28;20043;-67
2020/12/07 09:05:44;;;;;;;18.30;13.63;;;;;;;4.68;74.55;97321.53;5092929;28;20611;-66
2020/12/07 09:08:11;;;;;;;19.40;14.35;;;;;;;4.66;74.70;97316.50;5092097;28;20044;-68
2020/12/07 09:10:38;;;;;;;18.70;14.13;;;;;;;4.69;74.70;97318.75;5094019;28;20077;-66
2020/12/07 09:13:04;;;;;;;20.88;15.07;;;;;;;4.73;74.27;97324.38;5093946;28;20039;-66
2020/12/07 09:15:32;;;;;;;21.15;14.57;;;;;;;4.70;74.51;97327.41;5094012;28;20047;-67
2020/12/07 09:17:59;;;;;;;19.35;13.75;;;;;;;4.77;74.47;97333.47;5093895;28;20397;-66
2020/12/07 09:20:27;;;;;;;21.25;14.90;;;;;;;4.64;74.09;97334.19;5092447;28;20051;-67
2020/12/07 09:22:53;;;;;;;21.95;14.82;;;;;;;4.61;74.32;97331.16;5093693;28;20083;-66
2020/12/07 09:25:20;;;;;;;22.38;15.32;;;;;;;4.55;74.38;97334.53;5093489;28;20320;-67
2020/12/07 09:27:50;;;;;;;22.73;15.50;;;;;;;4.56;74.37;97341.38;5092003;28;20062;-67
2020/12/07 09:30:17;;;;;;;21.50;14.80;;;;;;;4.47;74.11;97336.28;5093326;28;20047;-66
2020/12/07 09:32:44;;;;;;;21.85;15.27;;;;;;;4.50;74.33;97335.13;5093382;28;20119;-67
2020/12/07 09:35:13;;;;;;;34.10;21.10;;;;;;;4.44;74.46;97344.50;5093373;28;20043;-67
2020/12/07 09:37:40;;;;;;;30.65;19.55;;;;;;;4.58;74.52;97345.44;5093158;28;20145;-67
2020/12/07 09:40:07;;;;;;;24.58;17.08;;;;;;;4.69;74.34;97352.78;5093065;28;20240;-66
2020/12/07 09:42:34;;;;;;;24.25;17.38;;;;;;;4.59;73.94;97354.09;5091577;28;20047;-67
2020/12/07 09:45:01;;;;;;;25.85;16.02;;;;;;;4.55;74.17;97352.84;5092973;28;20413;-67
2020/12/07 09:47:28;;;;;;;25.52;17.10;;;;;;;4.61;74.32;97354.69;5091673;28;20071;-67
2020/12/07 09:49:55;;;;;;;23.63;16.67;;;;;;;4.73;74.51;97350.56;5093232;28;20074;-66
2020/12/07 09:52:22;;;;;;;27.77;17.95;;;;;;;4.71;73.86;97345.53;5093439;28;20112;-67
2020/12/07 09:54:50;;;;;;;24.95;17.20;;;;;;;4.79;74.08;97352.44;5091535;28;20094;-68
2020/12/07 09:57:16;;;;;;;25.52;18.35;;;;;;;4.86;73.64;97342.81;5096576;28;20371;-67
2020/12/07 09:59:46;;;;;;;25.52;16.45;;;;;;;4.97;73.33;97347.50;5091531;28;20044;-69
2020/12/07 10:02:13;;;;;;;25.08;17.45;;;;;;;5.13;73.07;97348.19;5092728;28;20044;-67
2020/12/07 10:04:40;;;;;;;23.80;16.80;;;;;;;5.19;73.04;97342.19;5092762;28;20032;-67
2020/12/07 10:07:07;;;;;;;25.05;17.15;;;;;;;5.22;72.66;97337.38;5092484;28;20508;-67
2020/12/07 10:09:34;;;;;;;25.25;17.42;;;;;;;5.31;72.71;97340.66;5092594;28;20055;-67
2020/12/07 10:12:01;;;;;;;22.67;15.18;;;;;;;5.33;72.70;97337.81;5092648;28;20105;-67
2020/12/07 10:14:27;;;;;;;24.85;16.85;;;;;;;5.35;72.23;97330.59;5092329;28;20044;-69
2020/12/07 10:16:54;;;;;;;21.33;15.27;;;;;;;5.27;72.03;97338.63;5092441;28;20394;-67
2020/12/07 10:19:21;;;;;;;19.00;14.27;;;;;;;5.19;72.00;97329.91;5092093;28;20405;-67
2020/12/07 10:21:47;;;;;;;20.80;14.32;;;;;;;5.26;72.16;97322.06;5090926;28;20055;-68
2020/12/07 10:24:15;;;;;;;19.52;14.15;;;;;;;5.25;71.87;97325.69;5092436;28;20044;-67
2020/12/07 10:26:42;;;;;;;22.30;15.10;;;;;;;5.32;72.17;97323.13;5091054;28;20089;-68
2020/12/07 10:29:08;;;;;;;18.00;13.85;;;;;;;5.35;71.95;97325.34;5090714;28;20497;-67
2020/12/07 10:31:43;;;;;;;18.17;12.52;;;;;;;5.28;71.26;97329.75;5091092;28;20082;-67
2020/12/07 10:34:09;;;;;;;16.27;11.82;;;;;;;5.13;71.37;97327.25;5092712;28;20039;-67
2020/12/07 10:36:37;;;;;;;15.90;11.70;;;;;;;5.15;71.63;97339.16;5092282;28;20036;-68
2020/12/07 10:39:06;;;;;;;18.42;12.70;;;;;;;5.08;71.68;97340.13;5091947;28;20614;-67
2020/12/07 10:41:34;;;;;;;17.52;12.88;;;;;;;5.10;71.84;97335.47;5092116;28;20044;-67
2020/12/07 10:44:00;;;;;;;21.83;14.73;;;;;;;5.13;71.95;97346.38;5092423;28;20385;-67
2020/12/07 10:46:28;;;;;;;19.52;13.20;;;;;;;5.04;72.02;97339.69;5090833;28;20044;-67
2020/12/07 10:48:55;;;;;;;23.75;16.67;;;;;;;5.14;72.52;97347.19;5091778;28;20055;-67
2020/12/07 10:51:21;;;;;;;23.08;16.15;;;;;;;5.24;72.47;97352.91;5092102;28;20040;-67
2020/12/07 10:53:49;;;;;;;20.45;15.10;;;;;;;5.13;72.29;97351.63;5092359;28;20062;-69
2020/12/07 10:56:16;;;;;;;19.08;12.70;;;;;;;5.04;72.35;97347.56;5092367;28;20089;-67
2020/12/07 10:58:43;;;;;;;23.88;13.70;;;;;;;5.03;72.74;97353.81;5092088;28;20071;-69
2020/12/07 11:01:11;;;;;;;24.48;16.15;;;;;;;5.06;72.61;97357.81;5092158;28;20043;-68
2020/12/07 11:03:38;;;;;;;26.55;16.98;;;;;;;5.05;72.63;97357.03;5092029;28;20050;-68
2020/12/07 11:06:13;;;;;;;20.77;13.68;;;;;;;5.14;72.55;97361.13;5092143;28;20036;-69
2020/12/07 11:08:48;;;;;;;22.10;15.50;;;;;;;5.15;72.30;97360.13;5091732;28;20044;-65
2020/12/07 11:11:15;;;;;;;25.83;17.55;;;;;;;5.07;71.80;97367.31;5090998;28;20048;-68
2020/12/07 11:13:43;;;;;;;23.48;15.05;;;;;;;5.02;71.60;97364.44;5092115;28;20419;-68
2020/12/07 11:16:14;;;;;;;29.55;17.98;;;;;;;4.98;71.50;97356.19;5091059;28;20490;-67
2020/12/07 11:18:41;;;;;;;25.25;16.75;;;;;;;4.95;71.57;97360.00;5090864;28;20110;-65
2020/12/07 11:21:15;;;;;;;21.40;15.48;;;;;;;4.81;71.07;97357.47;5091376;28;20250;-65
2020/12/07 11:23:44;;;;;;;20.58;14.38;;;;;;;4.70;71.67;97361.44;5092835;28;20059;-67
2020/12/07 11:26:11;;;;;;;19.80;13.90;;;;;;;4.80;71.66;97366.34;5092825;28;20089;-67
2020/12/07 11:28:39;;;;;;;20.80;14.20;;;;;;;4.62;71.41;97359.78;5092190;28;20072;-68
2020/12/07 11:31:09;;;;;;;20.45;13.82;;;;;;;4.72;71.80;97357.63;5092329;28;20515;-67
2020/12/07 11:33:35;;;;;;;22.67;13.27;;;;;;;4.80;71.88;97348.00;5097193;28;20055;-68
2020/12/07 11:36:12;;;;;;;19.65;14.43;;;;;;;4.85;71.98;97353.47;5097260;28;20036;-68
2020/12/07 11:38:43;;;;;;;18.95;13.60;;;;;;;4.81;71.86;97350.41;5096211;28;20151;-69
2020/12/07 11:41:24;;;;;;;20.63;14.07;;;;;;;4.78;71.56;97352.63;5097932;28;20040;-67
2020/12/07 11:44:04;;;;;;;22.13;15.15;;;;;;;4.84;71.82;97347.44;5099186;28;20043;-65
2020/12/07 11:46:35;;;;;;;19.73;14.10;;;;;;;4.84;71.80;97344.00;5099713;28;20051;-65
2020/12/07 11:49:03;;;;;;;21.38;14.98;;;;;;;4.90;71.63;97345.88;5101968;28;20047;-66
2020/12/07 11:51:30;;;;;;;24.02;17.48;;;;;;;4.91;71.15;97342.25;5104755;28;20032;-66
2020/12/07 11:53:56;;;;;;;28.02;16.98;;;;;;;4.89;71.27;97342.41;5102530;28;20589;-66
2020/12/07 11:56:28;;;;;;;23.13;15.93;;;;;;;4.97;71.24;97334.41;5104832;28;20047;-66
2020/12/07 11:58:55;;;;;;;31.80;19.10;;;;;;;5.01;71.38;97334.84;5101684;28;20059;-66
2020/12/07 12:01:22;;;;;;;31.52;19.10;;;;;;;5.06;71.49;97340.31;5102122;28;20040;-66
2020/12/07 12:03:49;;;;;;;25.42;15.88;;;;;;;5.01;71.45;97341.88;5102299;28;20044;-67